Airfield :
LOGIN :

Register | Disclaimer

   EN    FR    IT 

 










Legend :    VFR   Marginal VFR   IFR   Intensive IFR   Very Intensive IFR
Visi :
Ceiling :
>= 8 km
>= 3000ft
5 to 8 km
1000 to 3000 ft
1500m to 5 km
500 to 1000 ft
800 to 1500m
200 to 500 ft
< 800m
< 200 ft
Symbols :   Thunderstorms  Fog  Heavy snow  Heavy precipitations  Wind > 20 kt
SIGMETs :     Misc.  Thunderstorms  Icing  Turbulence  Mountain Waves  Volcanic Ashes






- Airport Elevation : 76 ft
- IATA code : KID


ESMK - Kristianstad

CURRENT METAR :
  • 221250Z 19004KT 9999 SCT012 14/12 Q1014 RERA

EXPIRED METARs :
  • 221220Z 18004KT 120V210 9999 SCT012 BKN027TCU 13/11 Q1014
  • 221150Z 09004KT 9999 -DZ FEW018 SCT029 BKN042 12/11 Q1014
  • 221120Z 21006KT 130V250 8000 SHRA SCT023CB BKN039 13/10 Q1014
  • 221020Z VRB02KT 9999 SCT024TCU BKN038 15/09 Q1014

TAF TAF ESMK
Valid from the 22 at 12:00 until the 22 at 16:00 UTC


221112Z 2212/2216 VRB08KT 9999 SCT020 BKN030TCU



MET'MAP, your aeronautical weather chart ! - Copyright ORBIFLY December 2007 - Disclaimer

ORBIFLY MET'MAP TEAM :

Programming & Development : Alexandra Zaïnal
Original concept : Baudouin d'Aumeries
Technical & hardware support : Manuel Goepfert
Assistance : Marc-Olivier Méhu

Contact : metmap@orbifly.com




SOURCES & CREDITS :

   NOAA